sensor_id;sensor_type;location;lat;lon;timestamp;P1;durP1;ratioP1;P2;durP2;ratioP2
62030;SDS011;62035;52.094;5.112;2023-06-24T00:00:29;10.35;;;6.38;;
62030;SDS011;62035;52.094;5.112;2023-06-24T00:02:57;9.30;;;5.82;;
62030;SDS011;62035;52.094;5.112;2023-06-24T00:05:28;9.00;;;5.57;;
62030;SDS011;62035;52.094;5.112;2023-06-24T00:07:57;8.32;;;5.55;;
62030;SDS011;62035;52.094;5.112;2023-06-24T00:10:27;7.68;;;5.60;;
62030;SDS011;62035;52.094;5.112;2023-06-24T00:12:57;7.70;;;5.70;;
62030;SDS011;62035;52.094;5.112;2023-06-24T00:17:54;7.70;;;5.40;;
62030;SDS011;62035;52.094;5.112;2023-06-24T00:20:31;8.50;;;6.03;;
62030;SDS011;62035;52.094;5.112;2023-06-24T00:22:59;11.43;;;6.97;;
62030;SDS011;62035;52.094;5.112;2023-06-24T00:25:27;8.43;;;5.97;;
62030;SDS011;62035;52.094;5.112;2023-06-24T00:27:54;8.43;;;5.85;;
62030;SDS011;62035;52.094;5.112;2023-06-24T00:30:23;9.98;;;6.20;;
62030;SDS011;62035;52.094;5.112;2023-06-24T00:32:53;10.45;;;6.45;;
62030;SDS011;62035;52.094;5.112;2023-06-24T00:35:21;10.45;;;6.45;;
62030;SDS011;62035;52.094;5.112;2023-06-24T00:37:48;9.50;;;6.07;;
62030;SDS011;62035;52.094;5.112;2023-06-24T00:40:16;10.02;;;5.70;;
62030;SDS011;62035;52.094;5.112;2023-06-24T00:42:44;9.52;;;6.28;;
62030;SDS011;62035;52.094;5.112;2023-06-24T00:45:14;12.98;;;6.70;;
62030;SDS011;62035;52.094;5.112;2023-06-24T00:47:43;10.27;;;5.63;;
62030;SDS011;62035;52.094;5.112;2023-06-24T00:50:11;11.27;;;6.05;;
62030;SDS011;62035;52.094;5.112;2023-06-24T00:52:39;8.15;;;5.95;;
62030;SDS011;62035;52.094;5.112;2023-06-24T00:55:08;8.27;;;6.50;;
62030;SDS011;62035;52.094;5.112;2023-06-24T00:57:38;8.52;;;5.53;;
62030;SDS011;62035;52.094;5.112;2023-06-24T01:00:07;8.70;;;4.38;;
62030;SDS011;62035;52.094;5.112;2023-06-24T01:02:40;10.00;;;4.05;;
62030;SDS011;62035;52.094;5.112;2023-06-24T01:05:09;7.85;;;4.20;;
62030;SDS011;62035;52.094;5.112;2023-06-24T01:07:38;9.23;;;4.07;;
62030;SDS011;62035;52.094;5.112;2023-06-24T01:10:06;8.70;;;4.40;;
62030;SDS011;62035;52.094;5.112;2023-06-24T01:12:38;6.28;;;4.40;;
62030;SDS011;62035;52.094;5.112;2023-06-24T01:15:10;6.90;;;4.25;;
62030;SDS011;62035;52.094;5.112;2023-06-24T01:17:43;7.20;;;4.30;;
62030;SDS011;62035;52.094;5.112;2023-06-24T01:20:19;10.20;;;4.38;;
62030;SDS011;62035;52.094;5.112;2023-06-24T01:23:07;5.63;;;3.85;;
62030;SDS011;62035;52.094;5.112;2023-06-24T01:26:32;7.07;;;4.30;;
62030;SDS011;62035;52.094;5.112;2023-06-24T01:29:41;7.45;;;4.13;;
62030;SDS011;62035;52.094;5.112;2023-06-24T01:32:37;5.35;;;3.58;;
62030;SDS011;62035;52.094;5.112;2023-06-24T01:35:11;7.22;;;3.75;;
62030;SDS011;62035;52.094;5.112;2023-06-24T01:37:46;7.20;;;3.90;;
62030;SDS011;62035;52.094;5.112;2023-06-24T01:40:20;5.72;;;3.53;;
62030;SDS011;62035;52.094;5.112;2023-06-24T01:42:55;7.43;;;3.75;;
62030;SDS011;62035;52.094;5.112;2023-06-24T01:45:26;4.63;;;3.17;;
62030;SDS011;62035;52.094;5.112;2023-06-24T01:48:11;7.68;;;3.80;;
62030;SDS011;62035;52.094;5.112;2023-06-24T01:50:44;9.23;;;4.53;;
62030;SDS011;62035;52.094;5.112;2023-06-24T01:53:21;9.73;;;6.50;;
62030;SDS011;62035;52.094;5.112;2023-06-24T01:55:51;10.73;;;6.93;;
62030;SDS011;62035;52.094;5.112;2023-06-24T01:58:24;10.80;;;6.93;;
62030;SDS011;62035;52.094;5.112;2023-06-24T02:00:52;14.20;;;7.57;;
62030;SDS011;62035;52.094;5.112;2023-06-24T02:03:23;12.02;;;6.13;;
62030;SDS011;62035;52.094;5.112;2023-06-24T02:05:53;8.82;;;5.97;;
62030;SDS011;62035;52.094;5.112;2023-06-24T02:08:24;8.65;;;5.15;;
62030;SDS011;62035;52.094;5.112;2023-06-24T02:10:53;8.40;;;5.43;;
62030;SDS011;62035;52.094;5.112;2023-06-24T02:13:25;8.90;;;4.60;;
62030;SDS011;62035;52.094;5.112;2023-06-24T02:15:54;7.88;;;4.40;;
62030;SDS011;62035;52.094;5.112;2023-06-24T02:18:24;8.85;;;5.15;;
62030;SDS011;62035;52.094;5.112;2023-06-24T02:20:54;6.43;;;4.18;;
62030;SDS011;62035;52.094;5.112;2023-06-24T02:23:24;8.20;;;3.85;;
62030;SDS011;62035;52.094;5.112;2023-06-24T02:25:53;6.03;;;3.83;;
62030;SDS011;62035;52.094;5.112;2023-06-24T02:28:22;5.88;;;3.80;;
62030;SDS011;62035;52.094;5.112;2023-06-24T02:30:52;7.50;;;3.78;;
62030;SDS011;62035;52.094;5.112;2023-06-24T02:33:21;6.68;;;3.58;;
62030;SDS011;62035;52.094;5.112;2023-06-24T02:35:50;6.50;;;3.70;;
62030;SDS011;62035;52.094;5.112;2023-06-24T02:38:18;5.97;;;3.50;;
62030;SDS011;62035;52.094;5.112;2023-06-24T02:40:46;4.90;;;3.47;;
62030;SDS011;62035;52.094;5.112;2023-06-24T02:43:14;6.28;;;3.50;;
62030;SDS011;62035;52.094;5.112;2023-06-24T02:45:41;5.30;;;3.22;;
62030;SDS011;62035;52.094;5.112;2023-06-24T02:48:10;4.82;;;3.10;;
62030;SDS011;62035;52.094;5.112;2023-06-24T02:50:40;4.63;;;2.65;;
62030;SDS011;62035;52.094;5.112;2023-06-24T02:53:12;6.30;;;3.25;;
62030;SDS011;62035;52.094;5.112;2023-06-24T02:55:41;5.57;;;2.83;;
62030;SDS011;62035;52.094;5.112;2023-06-24T02:58:12;4.32;;;3.00;;
62030;SDS011;62035;52.094;5.112;2023-06-24T03:00:41;5.68;;;3.22;;
62030;SDS011;62035;52.094;5.112;2023-06-24T03:03:09;7.60;;;3.47;;
62030;SDS011;62035;52.094;5.112;2023-06-24T03:05:37;4.50;;;3.20;;
62030;SDS011;62035;52.094;5.112;2023-06-24T03:08:06;4.65;;;3.10;;
62030;SDS011;62035;52.094;5.112;2023-06-24T03:10:37;6.22;;;3.67;;
62030;SDS011;62035;52.094;5.112;2023-06-24T03:13:04;6.15;;;3.38;;
62030;SDS011;62035;52.094;5.112;2023-06-24T03:15:32;6.78;;;3.53;;
62030;SDS011;62035;52.094;5.112;2023-06-24T03:18:00;5.82;;;3.80;;
62030;SDS011;62035;52.094;5.112;2023-06-24T03:20:27;5.75;;;3.45;;
62030;SDS011;62035;52.094;5.112;2023-06-24T03:23:05;7.78;;;4.28;;
62030;SDS011;62035;52.094;5.112;2023-06-24T03:25:32;6.82;;;4.32;;
62030;SDS011;62035;52.094;5.112;2023-06-24T03:28:02;6.13;;;3.80;;
62030;SDS011;62035;52.094;5.112;2023-06-24T03:30:33;9.80;;;3.72;;
62030;SDS011;62035;52.094;5.112;2023-06-24T03:33:00;5.28;;;3.63;;
62030;SDS011;62035;52.094;5.112;2023-06-24T03:35:28;8.88;;;3.90;;
62030;SDS011;62035;52.094;5.112;2023-06-24T03:37:58;5.75;;;3.25;;
62030;SDS011;62035;52.094;5.112;2023-06-24T03:40:25;5.18;;;3.00;;
62030;SDS011;62035;52.094;5.112;2023-06-24T03:42:53;5.10;;;3.03;;
62030;SDS011;62035;52.094;5.112;2023-06-24T03:45:22;5.07;;;3.10;;
62030;SDS011;62035;52.094;5.112;2023-06-24T03:47:50;8.35;;;3.13;;
62030;SDS011;62035;52.094;5.112;2023-06-24T03:50:17;6.28;;;3.10;;
62030;SDS011;62035;52.094;5.112;2023-06-24T03:52:45;5.25;;;3.38;;
62030;SDS011;62035;52.094;5.112;2023-06-24T03:55:13;7.15;;;2.90;;
62030;SDS011;62035;52.094;5.112;2023-06-24T03:57:41;7.28;;;2.92;;
62030;SDS011;62035;52.094;5.112;2023-06-24T04:00:09;4.63;;;2.90;;
62030;SDS011;62035;52.094;5.112;2023-06-24T04:02:43;5.03;;;3.10;;
62030;SDS011;62035;52.094;5.112;2023-06-24T04:05:12;7.15;;;2.92;;
62030;SDS011;62035;52.094;5.112;2023-06-24T04:07:39;6.28;;;3.25;;
62030;SDS011;62035;52.094;5.112;2023-06-24T04:10:08;4.63;;;2.55;;
62030;SDS011;62035;52.094;5.112;2023-06-24T04:12:37;7.78;;;3.30;;
62030;SDS011;62035;52.094;5.112;2023-06-24T04:15:05;7.10;;;2.88;;
62030;SDS011;62035;52.094;5.112;2023-06-24T04:17:34;13.63;;;3.10;;
62030;SDS011;62035;52.094;5.112;2023-06-24T04:20:03;5.45;;;3.13;;
62030;SDS011;62035;52.094;5.112;2023-06-24T04:22:34;5.22;;;3.17;;
62030;SDS011;62035;52.094;5.112;2023-06-24T04:25:03;7.75;;;3.45;;
62030;SDS011;62035;52.094;5.112;2023-06-24T04:27:31;6.28;;;3.35;;
62030;SDS011;62035;52.094;5.112;2023-06-24T04:30:00;9.15;;;3.10;;
62030;SDS011;62035;52.094;5.112;2023-06-24T04:32:28;5.70;;;3.03;;
62030;SDS011;62035;52.094;5.112;2023-06-24T04:34:57;4.97;;;3.08;;
62030;SDS011;62035;52.094;5.112;2023-06-24T04:37:26;6.80;;;3.42;;
62030;SDS011;62035;52.094;5.112;2023-06-24T04:39:54;6.47;;;3.38;;
62030;SDS011;62035;52.094;5.112;2023-06-24T04:42:22;5.78;;;3.55;;
62030;SDS011;62035;52.094;5.112;2023-06-24T04:44:50;5.53;;;3.20;;
62030;SDS011;62035;52.094;5.112;2023-06-24T04:47:17;8.13;;;3.90;;
62030;SDS011;62035;52.094;5.112;2023-06-24T04:49:45;5.65;;;3.30;;
62030;SDS011;62035;52.094;5.112;2023-06-24T04:52:13;6.88;;;3.63;;
62030;SDS011;62035;52.094;5.112;2023-06-24T04:54:42;7.45;;;3.60;;
62030;SDS011;62035;52.094;5.112;2023-06-24T04:57:22;6.18;;;3.90;;
62030;SDS011;62035;52.094;5.112;2023-06-24T04:59:53;6.55;;;3.30;;
62030;SDS011;62035;52.094;5.112;2023-06-24T05:02:21;8.25;;;3.78;;
62030;SDS011;62035;52.094;5.112;2023-06-24T05:04:49;5.80;;;3.38;;
62030;SDS011;62035;52.094;5.112;2023-06-24T05:07:19;5.50;;;3.72;;
62030;SDS011;62035;52.094;5.112;2023-06-24T05:09:48;5.32;;;3.10;;
62030;SDS011;62035;52.094;5.112;2023-06-24T05:12:17;6.57;;;3.10;;
62030;SDS011;62035;52.094;5.112;2023-06-24T05:14:48;5.63;;;3.03;;
62030;SDS011;62035;52.094;5.112;2023-06-24T05:17:18;6.88;;;3.60;;
62030;SDS011;62035;52.094;5.112;2023-06-24T05:19:45;7.00;;;3.40;;
62030;SDS011;62035;52.094;5.112;2023-06-24T05:22:13;5.15;;;3.17;;
62030;SDS011;62035;52.094;5.112;2023-06-24T05:24:41;6.18;;;3.85;;
62030;SDS011;62035;52.094;5.112;2023-06-24T05:27:10;6.43;;;3.25;;
62030;SDS011;62035;52.094;5.112;2023-06-24T05:29:38;9.32;;;3.42;;
62030;SDS011;62035;52.094;5.112;2023-06-24T05:32:06;7.22;;;3.63;;
62030;SDS011;62035;52.094;5.112;2023-06-24T05:34:34;7.78;;;3.92;;
62030;SDS011;62035;52.094;5.112;2023-06-24T05:37:02;5.05;;;3.50;;
62030;SDS011;62035;52.094;5.112;2023-06-24T05:39:30;5.28;;;3.42;;
62030;SDS011;62035;52.094;5.112;2023-06-24T05:41:58;5.00;;;3.40;;
62030;SDS011;62035;52.094;5.112;2023-06-24T05:44:27;6.28;;;3.38;;
62030;SDS011;62035;52.094;5.112;2023-06-24T05:46:55;8.13;;;3.90;;
62030;SDS011;62035;52.094;5.112;2023-06-24T05:49:23;5.88;;;3.75;;
62030;SDS011;62035;52.094;5.112;2023-06-24T05:51:50;8.13;;;4.47;;
62030;SDS011;62035;52.094;5.112;2023-06-24T05:54:18;7.35;;;4.10;;
62030;SDS011;62035;52.094;5.112;2023-06-24T05:56:46;8.57;;;3.70;;
62030;SDS011;62035;52.094;5.112;2023-06-24T05:59:13;10.88;;;3.88;;
62030;SDS011;62035;52.094;5.112;2023-06-24T06:01:42;8.43;;;4.10;;
62030;SDS011;62035;52.094;5.112;2023-06-24T06:04:10;6.35;;;4.57;;
62030;SDS011;62035;52.094;5.112;2023-06-24T06:06:37;7.25;;;4.15;;
62030;SDS011;62035;52.094;5.112;2023-06-24T06:09:05;8.55;;;4.20;;
62030;SDS011;62035;52.094;5.112;2023-06-24T06:11:33;6.60;;;4.40;;
62030;SDS011;62035;52.094;5.112;2023-06-24T06:14:01;6.95;;;4.55;;
62030;SDS011;62035;52.094;5.112;2023-06-24T06:16:28;6.43;;;4.32;;
62030;SDS011;62035;52.094;5.112;2023-06-24T06:18:57;5.65;;;3.90;;
62030;SDS011;62035;52.094;5.112;2023-06-24T06:21:25;8.60;;;4.75;;
62030;SDS011;62035;52.094;5.112;2023-06-24T06:23:53;6.53;;;4.30;;
62030;SDS011;62035;52.094;5.112;2023-06-24T06:26:20;10.63;;;4.57;;
62030;SDS011;62035;52.094;5.112;2023-06-24T06:28:48;11.48;;;4.85;;
62030;SDS011;62035;52.094;5.112;2023-06-24T06:31:17;7.82;;;4.20;;
62030;SDS011;62035;52.094;5.112;2023-06-24T06:33:44;7.70;;;4.90;;
62030;SDS011;62035;52.094;5.112;2023-06-24T06:36:13;9.18;;;4.75;;
62030;SDS011;62035;52.094;5.112;2023-06-24T06:38:41;7.93;;;4.70;;
62030;SDS011;62035;52.094;5.112;2023-06-24T06:41:08;11.60;;;4.90;;
62030;SDS011;62035;52.094;5.112;2023-06-24T06:43:36;13.80;;;4.70;;
62030;SDS011;62035;52.094;5.112;2023-06-24T06:46:04;8.48;;;4.70;;
62030;SDS011;62035;52.094;5.112;2023-06-24T06:48:32;11.88;;;5.00;;
62030;SDS011;62035;52.094;5.112;2023-06-24T06:51:00;10.73;;;4.90;;
62030;SDS011;62035;52.094;5.112;2023-06-24T06:53:29;9.80;;;5.03;;
62030;SDS011;62035;52.094;5.112;2023-06-24T06:55:56;9.13;;;4.65;;
62030;SDS011;62035;52.094;5.112;2023-06-24T06:58:24;7.45;;;4.43;;
62030;SDS011;62035;52.094;5.112;2023-06-24T07:00:52;10.20;;;5.10;;
62030;SDS011;62035;52.094;5.112;2023-06-24T07:03:20;9.77;;;4.53;;
62030;SDS011;62035;52.094;5.112;2023-06-24T07:05:47;7.47;;;4.60;;
62030;SDS011;62035;52.094;5.112;2023-06-24T07:08:15;8.60;;;4.90;;
62030;SDS011;62035;52.094;5.112;2023-06-24T07:10:44;10.77;;;5.32;;
62030;SDS011;62035;52.094;5.112;2023-06-24T07:13:12;7.72;;;4.45;;
62030;SDS011;62035;52.094;5.112;2023-06-24T07:15:40;8.20;;;4.03;;
62030;SDS011;62035;52.094;5.112;2023-06-24T07:18:07;8.10;;;4.68;;
62030;SDS011;62035;52.094;5.112;2023-06-24T07:20:35;10.10;;;4.60;;
62030;SDS011;62035;52.094;5.112;2023-06-24T07:23:02;9.00;;;5.18;;
62030;SDS011;62035;52.094;5.112;2023-06-24T07:25:30;7.90;;;4.82;;
62030;SDS011;62035;52.094;5.112;2023-06-24T07:27:59;11.02;;;5.72;;
62030;SDS011;62035;52.094;5.112;2023-06-24T07:30:27;7.75;;;4.45;;
62030;SDS011;62035;52.094;5.112;2023-06-24T07:32:55;15.23;;;5.35;;
62030;SDS011;62035;52.094;5.112;2023-06-24T07:35:22;7.50;;;4.90;;
62030;SDS011;62035;52.094;5.112;2023-06-24T07:37:50;7.47;;;4.68;;
62030;SDS011;62035;52.094;5.112;2023-06-24T07:40:18;7.32;;;4.78;;
62030;SDS011;62035;52.094;5.112;2023-06-24T07:42:45;10.05;;;4.85;;
62030;SDS011;62035;52.094;5.112;2023-06-24T07:45:14;8.93;;;4.85;;
62030;SDS011;62035;52.094;5.112;2023-06-24T07:47:42;12.05;;;5.07;;
62030;SDS011;62035;52.094;5.112;2023-06-24T07:50:10;8.73;;;4.70;;
62030;SDS011;62035;52.094;5.112;2023-06-24T07:52:38;9.98;;;4.53;;
62030;SDS011;62035;52.094;5.112;2023-06-24T07:55:06;9.70;;;5.18;;
62030;SDS011;62035;52.094;5.112;2023-06-24T07:57:34;7.38;;;4.32;;
62030;SDS011;62035;52.094;5.112;2023-06-24T08:00:02;7.60;;;4.70;;
62030;SDS011;62035;52.094;5.112;2023-06-24T08:02:32;9.05;;;4.63;;
62030;SDS011;62035;52.094;5.112;2023-06-24T08:04:59;11.60;;;4.30;;
62030;SDS011;62035;52.094;5.112;2023-06-24T08:07:27;8.68;;;4.53;;
62030;SDS011;62035;52.094;5.112;2023-06-24T08:09:56;6.85;;;4.50;;
62030;SDS011;62035;52.094;5.112;2023-06-24T08:12:23;11.32;;;5.00;;
62030;SDS011;62035;52.094;5.112;2023-06-24T08:14:51;9.15;;;4.78;;
62030;SDS011;62035;52.094;5.112;2023-06-24T08:17:18;10.98;;;4.75;;
62030;SDS011;62035;52.094;5.112;2023-06-24T08:19:48;5.95;;;4.50;;
62030;SDS011;62035;52.094;5.112;2023-06-24T08:22:15;9.95;;;4.43;;
62030;SDS011;62035;52.094;5.112;2023-06-24T08:24:43;7.50;;;5.07;;
62030;SDS011;62035;52.094;5.112;2023-06-24T08:27:11;7.55;;;4.93;;
62030;SDS011;62035;52.094;5.112;2023-06-24T08:29:38;8.10;;;4.50;;
62030;SDS011;62035;52.094;5.112;2023-06-24T08:32:06;7.95;;;4.38;;
62030;SDS011;62035;52.094;5.112;2023-06-24T08:34:34;7.07;;;4.68;;
62030;SDS011;62035;52.094;5.112;2023-06-24T08:37:03;7.35;;;5.18;;
62030;SDS011;62035;52.094;5.112;2023-06-24T08:39:31;9.75;;;5.00;;
62030;SDS011;62035;52.094;5.112;2023-06-24T08:41:59;8.07;;;4.53;;
62030;SDS011;62035;52.094;5.112;2023-06-24T08:44:26;9.07;;;4.82;;
62030;SDS011;62035;52.094;5.112;2023-06-24T08:46:54;14.18;;;5.20;;
62030;SDS011;62035;52.094;5.112;2023-06-24T08:49:25;8.57;;;4.97;;
62030;SDS011;62035;52.094;5.112;2023-06-24T08:52:00;5.85;;;4.10;;
62030;SDS011;62035;52.094;5.112;2023-06-24T08:54:35;7.13;;;3.90;;
62030;SDS011;62035;52.094;5.112;2023-06-24T08:57:04;7.65;;;5.22;;
62030;SDS011;62035;52.094;5.112;2023-06-24T08:59:34;9.07;;;5.45;;
62030;SDS011;62035;52.094;5.112;2023-06-24T09:02:02;10.63;;;5.63;;
62030;SDS011;62035;52.094;5.112;2023-06-24T09:04:31;9.50;;;5.20;;
62030;SDS011;62035;52.094;5.112;2023-06-24T09:06:58;6.45;;;5.00;;
62030;SDS011;62035;52.094;5.112;2023-06-24T09:09:27;10.40;;;6.60;;
62030;SDS011;62035;52.094;5.112;2023-06-24T09:11:55;7.90;;;5.40;;
62030;SDS011;62035;52.094;5.112;2023-06-24T09:14:25;9.15;;;5.05;;
62030;SDS011;62035;52.094;5.112;2023-06-24T09:16:54;9.70;;;6.20;;
62030;SDS011;62035;52.094;5.112;2023-06-24T09:19:25;12.70;;;5.87;;
62030;SDS011;62035;52.094;5.112;2023-06-24T09:21:55;16.40;;;6.45;;
62030;SDS011;62035;52.094;5.112;2023-06-24T09:24:29;11.95;;;6.88;;
62030;SDS011;62035;52.094;5.112;2023-06-24T09:26:57;8.55;;;5.45;;
62030;SDS011;62035;52.094;5.112;2023-06-24T09:29:25;12.30;;;5.75;;
62030;SDS011;62035;52.094;5.112;2023-06-24T09:31:54;11.68;;;6.30;;
62030;SDS011;62035;52.094;5.112;2023-06-24T09:34:24;11.20;;;5.65;;
62030;SDS011;62035;52.094;5.112;2023-06-24T09:36:52;7.63;;;5.47;;
62030;SDS011;62035;52.094;5.112;2023-06-24T09:39:22;15.73;;;6.07;;
62030;SDS011;62035;52.094;5.112;2023-06-24T09:41:56;10.15;;;5.78;;
62030;SDS011;62035;52.094;5.112;2023-06-24T09:44:24;11.55;;;6.55;;
62030;SDS011;62035;52.094;5.112;2023-06-24T09:46:53;9.55;;;6.80;;
62030;SDS011;62035;52.094;5.112;2023-06-24T09:49:22;12.38;;;6.75;;
62030;SDS011;62035;52.094;5.112;2023-06-24T09:51:51;8.95;;;5.90;;
62030;SDS011;62035;52.094;5.112;2023-06-24T09:54:24;13.65;;;6.93;;
62030;SDS011;62035;52.094;5.112;2023-06-24T09:56:57;9.90;;;5.60;;
62030;SDS011;62035;52.094;5.112;2023-06-24T09:59:29;11.70;;;6.40;;
62030;SDS011;62035;52.094;5.112;2023-06-24T10:02:00;8.90;;;6.50;;
62030;SDS011;62035;52.094;5.112;2023-06-24T10:04:31;13.05;;;6.20;;
62030;SDS011;62035;52.094;5.112;2023-06-24T10:06:59;10.30;;;5.90;;
62030;SDS011;62035;52.094;5.112;2023-06-24T10:09:28;8.00;;;6.07;;
62030;SDS011;62035;52.094;5.112;2023-06-24T10:11:57;10.32;;;5.90;;
62030;SDS011;62035;52.094;5.112;2023-06-24T10:14:26;13.02;;;6.25;;
62030;SDS011;62035;52.094;5.112;2023-06-24T10:17:00;11.57;;;6.75;;
62030;SDS011;62035;52.094;5.112;2023-06-24T10:19:29;13.52;;;6.95;;
62030;SDS011;62035;52.094;5.112;2023-06-24T10:22:04;10.05;;;5.93;;
62030;SDS011;62035;52.094;5.112;2023-06-24T10:24:36;10.23;;;6.70;;
62030;SDS011;62035;52.094;5.112;2023-06-24T10:27:09;8.80;;;5.97;;
62030;SDS011;62035;52.094;5.112;2023-06-24T10:29:44;11.13;;;6.88;;
62030;SDS011;62035;52.094;5.112;2023-06-24T10:32:14;10.52;;;6.95;;
62030;SDS011;62035;52.094;5.112;2023-06-24T10:34:43;11.20;;;6.68;;
62030;SDS011;62035;52.094;5.112;2023-06-24T10:37:12;11.85;;;7.18;;
62030;SDS011;62035;52.094;5.112;2023-06-24T10:39:48;10.55;;;7.07;;
62030;SDS011;62035;52.094;5.112;2023-06-24T10:42:30;8.68;;;5.85;;
62030;SDS011;62035;52.094;5.112;2023-06-24T10:45:16;13.65;;;5.20;;
62030;SDS011;62035;52.094;5.112;2023-06-24T10:47:46;10.73;;;5.35;;
62030;SDS011;62035;52.094;5.112;2023-06-24T10:50:17;12.70;;;5.90;;
62030;SDS011;62035;52.094;5.112;2023-06-24T10:52:47;7.85;;;5.45;;
62030;SDS011;62035;52.094;5.112;2023-06-24T10:55:21;11.48;;;6.60;;
62030;SDS011;62035;52.094;5.112;2023-06-24T10:57:52;10.18;;;6.07;;
62030;SDS011;62035;52.094;5.112;2023-06-24T11:00:20;11.38;;;7.05;;
62030;SDS011;62035;52.094;5.112;2023-06-24T11:02:48;11.23;;;7.22;;
62030;SDS011;62035;52.094;5.112;2023-06-24T11:05:16;9.10;;;6.47;;
62030;SDS011;62035;52.094;5.112;2023-06-24T11:07:44;9.60;;;5.68;;
62030;SDS011;62035;52.094;5.112;2023-06-24T11:10:12;7.72;;;5.32;;
62030;SDS011;62035;52.094;5.112;2023-06-24T11:12:41;9.75;;;6.10;;
62030;SDS011;62035;52.094;5.112;2023-06-24T11:15:13;11.07;;;6.78;;
62030;SDS011;62035;52.094;5.112;2023-06-24T11:17:41;8.93;;;5.38;;
62030;SDS011;62035;52.094;5.112;2023-06-24T11:20:09;8.25;;;5.05;;
62030;SDS011;62035;52.094;5.112;2023-06-24T11:22:39;15.32;;;5.75;;
62030;SDS011;62035;52.094;5.112;2023-06-24T11:25:14;11.68;;;5.30;;
62030;SDS011;62035;52.094;5.112;2023-06-24T11:27:43;8.30;;;5.15;;
62030;SDS011;62035;52.094;5.112;2023-06-24T11:30:12;9.20;;;5.35;;
62030;SDS011;62035;52.094;5.112;2023-06-24T11:32:42;10.03;;;5.17;;
62030;SDS011;62035;52.094;5.112;2023-06-24T11:35:11;6.83;;;4.40;;
62030;SDS011;62035;52.094;5.112;2023-06-24T11:37:41;9.10;;;4.33;;
62030;SDS011;62035;52.094;5.112;2023-06-24T11:40:10;12.43;;;4.13;;
62030;SDS011;62035;52.094;5.112;2023-06-24T11:42:42;8.20;;;4.22;;
62030;SDS011;62035;52.094;5.112;2023-06-24T11:45:13;7.55;;;3.90;;
62030;SDS011;62035;52.094;5.112;2023-06-24T11:47:47;6.63;;;4.15;;
62030;SDS011;62035;52.094;5.112;2023-06-24T11:50:15;6.25;;;3.75;;
62030;SDS011;62035;52.094;5.112;2023-06-24T11:52:43;6.68;;;3.75;;
62030;SDS011;62035;52.094;5.112;2023-06-24T11:57:51;7.22;;;3.92;;
62030;SDS011;62035;52.094;5.112;2023-06-24T12:00:23;8.10;;;4.63;;
62030;SDS011;62035;52.094;5.112;2023-06-24T12:02:53;12.10;;;5.53;;
62030;SDS011;62035;52.094;5.112;2023-06-24T12:05:25;7.35;;;5.07;;
62030;SDS011;62035;52.094;5.112;2023-06-24T12:07:56;10.30;;;5.05;;
62030;SDS011;62035;52.094;5.112;2023-06-24T12:10:25;8.50;;;4.43;;
62030;SDS011;62035;52.094;5.112;2023-06-24T12:12:55;9.93;;;5.55;;
62030;SDS011;62035;52.094;5.112;2023-06-24T12:15:25;7.32;;;4.63;;
62030;SDS011;62035;52.094;5.112;2023-06-24T12:17:54;7.78;;;5.10;;
62030;SDS011;62035;52.094;5.112;2023-06-24T12:20:23;10.43;;;5.03;;
62030;SDS011;62035;52.094;5.112;2023-06-24T12:22:52;10.57;;;5.65;;
62030;SDS011;62035;52.094;5.112;2023-06-24T12:25:19;9.27;;;5.35;;
62030;SDS011;62035;52.094;5.112;2023-06-24T12:27:47;9.30;;;4.90;;
62030;SDS011;62035;52.094;5.112;2023-06-24T12:30:15;8.68;;;4.38;;
62030;SDS011;62035;52.094;5.112;2023-06-24T12:32:44;6.72;;;4.47;;
62030;SDS011;62035;52.094;5.112;2023-06-24T12:35:12;9.00;;;3.95;;
62030;SDS011;62035;52.094;5.112;2023-06-24T12:37:40;10.52;;;4.10;;
62030;SDS011;62035;52.094;5.112;2023-06-24T12:40:08;8.23;;;4.43;;
62030;SDS011;62035;52.094;5.112;2023-06-24T12:42:36;8.80;;;4.22;;
62030;SDS011;62035;52.094;5.112;2023-06-24T12:45:04;7.57;;;4.30;;
62030;SDS011;62035;52.094;5.112;2023-06-24T12:47:33;9.68;;;4.60;;
62030;SDS011;62035;52.094;5.112;2023-06-24T12:50:02;5.43;;;3.55;;
62030;SDS011;62035;52.094;5.112;2023-06-24T12:52:32;7.93;;;3.72;;
62030;SDS011;62035;52.094;5.112;2023-06-24T12:55:00;7.50;;;4.07;;
62030;SDS011;62035;52.094;5.112;2023-06-24T12:57:29;7.63;;;3.70;;
62030;SDS011;62035;52.094;5.112;2023-06-24T12:59:57;7.22;;;3.80;;
62030;SDS011;62035;52.094;5.112;2023-06-24T13:02:24;8.05;;;4.50;;
62030;SDS011;62035;52.094;5.112;2023-06-24T13:04:52;5.53;;;3.78;;
62030;SDS011;62035;52.094;5.112;2023-06-24T13:07:21;6.32;;;3.28;;
62030;SDS011;62035;52.094;5.112;2023-06-24T13:09:49;6.03;;;3.83;;
62030;SDS011;62035;52.094;5.112;2023-06-24T13:12:16;6.43;;;3.90;;
62030;SDS011;62035;52.094;5.112;2023-06-24T13:14:44;7.43;;;4.03;;
62030;SDS011;62035;52.094;5.112;2023-06-24T13:17:11;5.57;;;3.85;;
62030;SDS011;62035;52.094;5.112;2023-06-24T13:19:39;7.47;;;3.95;;
62030;SDS011;62035;52.094;5.112;2023-06-24T13:22:07;6.22;;;3.70;;
62030;SDS011;62035;52.094;5.112;2023-06-24T13:24:36;9.75;;;4.80;;
62030;SDS011;62035;52.094;5.112;2023-06-24T13:27:03;8.52;;;4.80;;
62030;SDS011;62035;52.094;5.112;2023-06-24T13:29:31;8.57;;;3.88;;
62030;SDS011;62035;52.094;5.112;2023-06-24T13:31:59;7.57;;;3.67;;
62030;SDS011;62035;52.094;5.112;2023-06-24T13:34:27;7.07;;;3.75;;
62030;SDS011;62035;52.094;5.112;2023-06-24T13:36:54;5.70;;;3.10;;
62030;SDS011;62035;52.094;5.112;2023-06-24T13:39:22;6.60;;;2.88;;
62030;SDS011;62035;52.094;5.112;2023-06-24T13:41:51;6.93;;;3.42;;
62030;SDS011;62035;52.094;5.112;2023-06-24T13:44:19;9.73;;;3.90;;
62030;SDS011;62035;52.094;5.112;2023-06-24T13:46:47;10.05;;;3.67;;
62030;SDS011;62035;52.094;5.112;2023-06-24T13:49:16;5.00;;;3.30;;
62030;SDS011;62035;52.094;5.112;2023-06-24T13:51:44;8.95;;;3.35;;
62030;SDS011;62035;52.094;5.112;2023-06-24T13:54:11;7.75;;;3.72;;
62030;SDS011;62035;52.094;5.112;2023-06-24T13:56:39;6.50;;;3.20;;
62030;SDS011;62035;52.094;5.112;2023-06-24T13:59:08;5.00;;;3.03;;
62030;SDS011;62035;52.094;5.112;2023-06-24T14:01:36;5.97;;;3.95;;
62030;SDS011;62035;52.094;5.112;2023-06-24T14:04:04;5.85;;;3.88;;
62030;SDS011;62035;52.094;5.112;2023-06-24T14:06:32;6.63;;;3.38;;
62030;SDS011;62035;52.094;5.112;2023-06-24T14:09:00;6.95;;;4.15;;
62030;SDS011;62035;52.094;5.112;2023-06-24T14:11:27;6.28;;;3.50;;
62030;SDS011;62035;52.094;5.112;2023-06-24T14:13:55;5.15;;;3.20;;
62030;SDS011;62035;52.094;5.112;2023-06-24T14:16:24;6.18;;;3.78;;
62030;SDS011;62035;52.094;5.112;2023-06-24T14:18:52;8.15;;;3.63;;
62030;SDS011;62035;52.094;5.112;2023-06-24T14:21:19;5.57;;;3.53;;
62030;SDS011;62035;52.094;5.112;2023-06-24T14:23:47;6.55;;;3.65;;
62030;SDS011;62035;52.094;5.112;2023-06-24T14:26:15;6.28;;;3.70;;
62030;SDS011;62035;52.094;5.112;2023-06-24T14:28:42;4.45;;;3.17;;
62030;SDS011;62035;52.094;5.112;2023-06-24T14:31:11;4.43;;;2.95;;
62030;SDS011;62035;52.094;5.112;2023-06-24T14:33:40;4.97;;;2.95;;
62030;SDS011;62035;52.094;5.112;2023-06-24T14:36:07;4.82;;;2.90;;
62030;SDS011;62035;52.094;5.112;2023-06-24T14:38:35;4.63;;;3.15;;
62030;SDS011;62035;52.094;5.112;2023-06-24T14:41:03;6.22;;;3.10;;
62030;SDS011;62035;52.094;5.112;2023-06-24T14:43:33;7.82;;;3.33;;
62030;SDS011;62035;52.094;5.112;2023-06-24T14:46:01;4.07;;;2.80;;
62030;SDS011;62035;52.094;5.112;2023-06-24T14:48:29;4.28;;;3.20;;
62030;SDS011;62035;52.094;5.112;2023-06-24T14:50:58;10.60;;;3.17;;
62030;SDS011;62035;52.094;5.112;2023-06-24T14:53:25;5.18;;;3.05;;
62030;SDS011;62035;52.094;5.112;2023-06-24T14:55:53;4.22;;;2.90;;
62030;SDS011;62035;52.094;5.112;2023-06-24T14:58:21;3.85;;;2.72;;
62030;SDS011;62035;52.094;5.112;2023-06-24T15:00:48;5.75;;;3.28;;
62030;SDS011;62035;52.094;5.112;2023-06-24T15:03:16;8.65;;;3.58;;